Wye River — WDE3583 — position and weather

sailwx.info

Track history (hours):
 
Tides and Currents Weather Stations Pressure Air Temp Water Temp Dewpoint Dewpoint Depression Visibility Wind Speed Wind Dir Waves Ship Positions

Wye River

Owner: Vane Line Bunkering, Inc., Baltimore, MD. More information available from US FCC via Universal Licensing System and Coast Guard Vessel Documentation Center.

Last reported at 2015-Mar-26 16:15 UTC. Time now 2015-Mar-28 05:19 UTC.
Position N 29°23' W 094°49'.

Length 30 m; draft 4.3 m.

Type: Towing. MMSI: 367341190.

Date/timePositionNaut miles runAvg speedWind from/ knotsBaromVisibWave heightAir tempDewpointWater temp
2015-Mar-26 16:15N 29°23' W 094°49'5 7.3
2015-Mar-26 15:31N 29°28' W 094°51'8 8.0
2015-Mar-26 14:33N 29°35' W 094°56'9 8.6
2015-Mar-26 13:33N 29°42' W 095°00'6 6.1
2015-Mar-26 12:33N 29°44' W 095°07'5 0.3
2015-Mar-25 19:08N 29°44' W 095°12'0 0.0
2015-Mar-25 18:24N 29°44' W 095°12'0 0.0
2015-Mar-25 17:33N 29°44' W 095°12'0 0.0
2015-Mar-25 16:33N 29°44' W 095°12'0 0.0
2015-Mar-25 15:33N 29°44' W 095°12'0 0.0
2015-Mar-25 14:33N 29°44' W 095°12'0 0.0
2015-Mar-25 13:33N 29°44' W 095°12'5 0.4
2015-Mar-25 01:04N 29°44' W 095°07'3 5.4
2015-Mar-25 00:31N 29°44' W 095°04'8 8.0
2015-Mar-24 23:32N 29°38' W 094°58'20 1.5
2015-Mar-24 10:06N 29°21' W 094°45'  
Track history (hours):
 
Tides and Currents Weather Stations Pressure Air Temp Water Temp Dewpoint Dewpoint Depression Visibility Wind Speed Wind Dir Waves Ship Positions

Wye River

Owner: Vane Line Bunkering, Inc., Baltimore, MD. More information available from US FCC via Universal Licensing System and Coast Guard Vessel Documentation Center.

Last reported at 2015-Mar-26 16:15 UTC. Time now 2015-Mar-28 05:19 UTC.
Position N 29°23' W 094°49'.

Length 30 m; draft 4.3 m.

Type: Towing. MMSI: 367341190.

Date/timePositionNaut miles runAvg speedWind from/ knotsBaromVisibWave heightAir tempDewpointWater temp
2015-Mar-26 16:15N 29°23' W 094°49'5 7.3
2015-Mar-26 15:31N 29°28' W 094°51'8 8.0
2015-Mar-26 14:33N 29°35' W 094°56'9 8.6
2015-Mar-26 13:33N 29°42' W 095°00'6 6.1
2015-Mar-26 12:33N 29°44' W 095°07'5 0.3
2015-Mar-25 19:08N 29°44' W 095°12'0 0.0
2015-Mar-25 18:24N 29°44' W 095°12'0 0.0
2015-Mar-25 17:33N 29°44' W 095°12'0 0.0
2015-Mar-25 16:33N 29°44' W 095°12'0 0.0
2015-Mar-25 15:33N 29°44' W 095°12'0 0.0
2015-Mar-25 14:33N 29°44' W 095°12'0 0.0
2015-Mar-25 13:33N 29°44' W 095°12'5 0.4
2015-Mar-25 01:04N 29°44' W 095°07'3 5.4
2015-Mar-25 00:31N 29°44' W 095°04'8 8.0
2015-Mar-24 23:32N 29°38' W 094°58'20 1.5
2015-Mar-24 10:06N 29°21' W 094°45'  

Dump ship's entire track history